createdAt,value
2019-05-21T00:00:34.179Z,26.70
2019-05-21T00:05:40.872Z,25.37
2019-05-21T00:10:46.168Z,26.97
2019-05-21T00:15:49.925Z,27.33
2019-05-21T00:20:57.682Z,26.97
2019-05-21T00:25:58.893Z,28.40
2019-05-21T00:31:43.125Z,31.70
2019-05-21T00:37:24.022Z,27.07
2019-05-21T00:42:32.363Z,27.50
2019-05-21T00:47:36.104Z,27.53
2019-05-21T00:52:39.741Z,22.13
2019-05-21T00:57:46.328Z,23.23
2019-05-21T01:02:52.665Z,19.87
2019-05-21T01:07:56.324Z,18.90
2019-05-21T01:12:59.935Z,16.33
2019-05-21T01:18:09.335Z,15.60
2019-05-21T01:23:17.700Z,15.90
2019-05-21T01:28:22.983Z,16.50
2019-05-21T01:33:28.223Z,16.43
2019-05-21T01:38:34.431Z,16.53
2019-05-21T01:43:42.476Z,15.83
2019-05-21T01:48:47.733Z,15.10
2019-05-21T01:53:51.351Z,15.83
2019-05-21T01:58:54.970Z,17.43
2019-05-21T02:03:58.589Z,21.83
2019-05-21T02:09:07.118Z,14.20
2019-05-21T02:14:12.696Z,18.23
2019-05-21T02:19:16.078Z,15.97
2019-05-21T02:24:27.041Z,12.83
2019-05-21T02:29:36.541Z,15.27
2019-05-21T02:34:46.154Z,15.70
2019-05-21T02:39:49.774Z,14.30
2019-05-21T02:44:54.569Z,15.83
2019-05-21T02:49:58.491Z,13.70
2019-05-21T02:55:02.325Z,16.00
2019-05-21T03:00:09.311Z,14.70
2019-05-21T03:05:12.989Z,17.07
2019-05-21T03:10:16.756Z,14.87
2019-05-21T03:15:20.366Z,16.93
2019-05-21T03:20:24.109Z,19.13
2019-05-21T03:25:27.856Z,16.30
2019-05-21T03:30:31.493Z,18.53
2019-05-21T03:35:35.148Z,16.27
2019-05-21T03:40:38.753Z,16.30
2019-05-21T03:45:42.383Z,17.10
2019-05-21T03:50:45.997Z,17.63
2019-05-21T03:55:49.676Z,19.50
2019-05-21T04:00:54.411Z,18.60
2019-05-21T04:05:58.131Z,18.60
2019-05-21T04:11:01.797Z,20.03
2019-05-21T04:16:07.019Z,14.30
2019-05-21T04:21:10.628Z,15.70
2019-05-21T04:26:14.248Z,14.60
2019-05-21T04:31:17.870Z,16.67
2019-05-21T04:36:21.652Z,18.30
2019-05-21T04:41:25.279Z,15.50
2019-05-21T04:46:28.879Z,16.13
2019-05-21T04:51:32.468Z,14.57
2019-05-21T04:56:36.197Z,16.93
2019-05-21T05:01:39.795Z,19.33
2019-05-21T05:06:43.472Z,15.20
2019-05-21T05:11:47.107Z,14.50
2019-05-21T05:16:50.752Z,13.93
2019-05-21T05:21:54.334Z,18.93
2019-05-21T05:26:57.949Z,13.97
2019-05-21T05:32:01.556Z,10.20
2019-05-21T05:37:05.161Z,11.27
2019-05-21T05:42:08.826Z,13.27
2019-05-21T05:47:12.515Z,11.90
2019-05-21T05:52:16.231Z,11.40
2019-05-21T05:57:19.856Z,15.93
2019-05-21T06:02:23.565Z,16.00
2019-05-21T06:07:27.206Z,18.67
2019-05-21T06:12:30.827Z,22.40
2019-05-21T06:17:36.137Z,21.60
2019-05-21T06:22:45.925Z,18.77
2019-05-21T06:27:49.617Z,19.50
2019-05-21T06:32:54.784Z,20.73
2019-05-21T06:37:58.516Z,21.07
2019-05-21T06:43:02.197Z,22.20
2019-05-21T06:48:05.885Z,24.60
2019-05-21T06:53:09.494Z,18.67
2019-05-21T06:58:13.131Z,20.30
2019-05-21T07:03:16.780Z,23.67
2019-05-21T07:08:33.471Z,22.97
2019-05-21T07:13:25.652Z,19.20
2019-05-21T07:18:29.276Z,20.40
2019-05-21T07:23:32.897Z,26.73
2019-05-21T07:28:36.508Z,25.27
2019-05-21T07:33:40.268Z,22.57
2019-05-21T07:38:53.393Z,27.03
2019-05-21T07:43:49.179Z,24.87
2019-05-21T07:48:52.829Z,24.27
2019-05-21T07:53:56.426Z,26.63
2019-05-21T07:59:00.052Z,24.30
2019-05-21T08:04:03.654Z,24.30
2019-05-21T08:09:14.102Z,21.43
2019-05-21T08:14:13.056Z,23.87
2019-05-21T08:19:16.681Z,19.50
2019-05-21T08:24:20.665Z,19.30
2019-05-21T08:29:24.289Z,18.30
2019-05-21T08:34:27.962Z,19.20
2019-05-21T08:39:31.650Z,22.53
2019-05-21T08:44:35.312Z,19.73
2019-05-21T08:49:38.996Z,18.53
2019-05-21T08:54:55.943Z,17.90
2019-05-21T08:59:57.602Z,20.17
2019-05-21T09:05:01.206Z,16.17
2019-05-21T09:10:06.544Z,18.93
2019-05-21T09:15:10.912Z,17.23
2019-05-21T09:20:15.369Z,16.50
2019-05-21T09:25:19.040Z,18.07
2019-05-21T09:30:22.794Z,15.67
2019-05-21T09:35:26.430Z,16.43
2019-05-21T09:40:30.162Z,13.20
2019-05-21T09:45:33.839Z,14.70
2019-05-21T09:50:37.455Z,16.13
2019-05-21T09:55:41.154Z,16.70
2019-05-21T10:00:46.468Z,16.97
2019-05-21T10:05:50.306Z,16.30
2019-05-21T10:10:53.917Z,16.20
2019-05-21T10:16:01.202Z,12.80
2019-05-21T10:21:02.846Z,15.10
2019-05-21T10:26:06.539Z,12.80
2019-05-21T10:31:10.292Z,9.60
2019-05-21T10:36:13.942Z,11.30
2019-05-21T10:41:17.733Z,12.70
2019-05-21T10:46:22.273Z,13.10
2019-05-21T10:51:26.005Z,11.00
2019-05-21T10:56:46.412Z,13.90
2019-05-21T11:01:36.662Z,10.77
2019-05-21T11:06:42.108Z,12.73
2019-05-21T11:11:45.848Z,13.40
2019-05-21T11:16:49.623Z,12.83
2019-05-21T11:21:53.321Z,11.60
2019-05-21T11:26:57.659Z,11.27
2019-05-21T11:32:01.313Z,13.97
2019-05-21T11:37:05.118Z,11.60
2019-05-21T11:42:08.796Z,10.40
2019-05-21T11:47:12.421Z,11.33
2019-05-21T11:52:16.039Z,9.97
2019-05-21T11:57:19.654Z,8.80
2019-05-21T12:02:23.393Z,12.80
2019-05-21T12:07:27.312Z,14.37
2019-05-21T12:12:32.640Z,12.43
2019-05-21T12:17:36.403Z,10.23
2019-05-21T12:22:40.076Z,10.53
2019-05-21T12:27:43.780Z,13.30
2019-05-21T12:32:47.400Z,15.07
2019-05-21T12:37:51.161Z,10.47
2019-05-21T12:42:54.931Z,10.97
2019-05-21T12:47:58.579Z,12.50
2019-05-21T12:53:02.199Z,14.93
2019-05-21T12:58:05.810Z,11.53
2019-05-21T13:03:09.424Z,12.70
2019-05-21T13:08:13.058Z,13.43
2019-05-21T13:13:16.700Z,78.23
2019-05-21T13:18:20.383Z,13.93
2019-05-21T13:23:24.159Z,14.90
2019-05-21T13:28:27.860Z,16.73
2019-05-21T13:33:31.463Z,15.40
2019-05-21T13:38:35.096Z,16.40
2019-05-21T13:43:38.763Z,20.47
2019-05-21T13:48:42.387Z,19.97
2019-05-21T13:53:46.201Z,21.50
2019-05-21T13:58:50.448Z,21.70
2019-05-21T14:03:54.123Z,24.13
2019-05-21T14:08:57.840Z,23.23
2019-05-21T14:14:01.529Z,23.97
2019-05-21T14:19:05.420Z,23.60
2019-05-21T14:24:09.084Z,26.33
2019-05-21T14:29:12.944Z,26.30
2019-05-21T14:34:16.549Z,27.33
2019-05-21T14:39:20.331Z,29.20
2019-05-21T14:44:23.930Z,26.27
2019-05-21T14:49:27.558Z,33.43
2019-05-21T14:54:31.334Z,31.00
2019-05-21T14:59:34.954Z,31.07
2019-05-21T15:04:39.007Z,32.37
2019-05-21T15:09:42.730Z,30.27
2019-05-21T15:14:46.333Z,32.20
2019-05-21T15:19:51.734Z,29.73
2019-05-21T15:24:55.512Z,27.57
2019-05-21T15:29:59.191Z,32.70
2019-05-21T15:35:03.026Z,35.67
2019-05-21T15:40:07.724Z,30.30
2019-05-21T15:45:11.714Z,31.50
2019-05-21T15:50:15.737Z,31.07
2019-05-21T15:55:19.434Z,31.60
2019-05-21T16:00:23.785Z,31.40
2019-05-21T16:05:27.447Z,34.07
2019-05-21T16:10:31.150Z,31.10
2019-05-21T16:15:34.842Z,38.83
2019-05-21T16:20:42.109Z,31.40
2019-05-21T16:25:43.962Z,30.27
2019-05-21T16:30:48.012Z,28.87
2019-05-21T16:35:51.690Z,28.53
2019-05-21T16:40:55.436Z,27.40
2019-05-21T16:45:59.363Z,30.30
2019-05-21T16:51:03.144Z,29.53
2019-05-21T16:56:07.003Z,25.87
2019-05-21T17:01:11.835Z,26.13
2019-05-21T17:06:15.526Z,26.90
2019-05-21T17:11:19.141Z,22.67
2019-05-21T17:16:22.854Z,19.90
2019-05-21T17:21:26.531Z,20.27
2019-05-21T17:26:30.138Z,22.40
2019-05-21T17:31:33.985Z,17.03
2019-05-21T17:36:37.635Z,19.17
2019-05-21T17:41:41.300Z,14.67
2019-05-21T17:46:44.969Z,14.87
2019-05-21T17:51:48.639Z,14.13
2019-05-21T17:56:52.481Z,15.10
2019-05-21T18:01:56.257Z,15.60
2019-05-21T18:07:00.205Z,17.13
2019-05-21T18:12:05.708Z,16.30
2019-05-21T18:17:10.972Z,16.43
2019-05-21T18:22:16.252Z,16.57
2019-05-21T18:27:20.332Z,19.43
2019-05-21T18:32:24.043Z,19.63
2019-05-21T18:37:28.181Z,20.60
2019-05-21T18:42:31.935Z,26.40
2019-05-21T18:47:35.531Z,19.97
2019-05-21T18:52:39.227Z,20.70
2019-05-21T18:57:42.912Z,17.87
2019-05-21T19:02:46.531Z,18.37
2019-05-21T19:07:50.152Z,17.70
2019-05-21T19:12:53.821Z,17.90
2019-05-21T19:17:57.474Z,18.83
2019-05-21T19:23:01.156Z,19.70
2019-05-21T19:28:05.039Z,16.30
2019-05-21T19:33:08.721Z,21.13
2019-05-21T19:38:12.340Z,15.97
2019-05-21T19:43:16.030Z,12.37
2019-05-21T19:48:19.657Z,19.53
2019-05-21T19:53:23.281Z,15.47
2019-05-21T19:58:27.345Z,17.60
2019-05-21T20:03:31.487Z,19.73
2019-05-21T20:08:35.163Z,18.70
2019-05-21T20:13:39.051Z,21.60
2019-05-21T20:18:42.937Z,17.97
2019-05-21T20:23:47.746Z,19.70
2019-05-21T20:28:51.500Z,18.40
2019-05-21T20:33:55.702Z,22.60
2019-05-21T20:38:59.923Z,18.37
2019-05-21T20:44:04.455Z,22.00
2019-05-21T20:49:08.161Z,20.50
2019-05-21T20:54:13.781Z,22.33
2019-05-21T20:59:17.462Z,23.13
2019-05-21T21:04:24.495Z,17.83
2019-05-21T21:09:28.353Z,19.80
2019-05-21T21:14:33.715Z,24.33
2019-05-21T21:19:37.638Z,23.40
2019-05-21T21:24:41.294Z,24.40
2019-05-21T21:29:45.068Z,20.30
2019-05-21T21:34:56.920Z,20.63
2019-05-21T21:40:01.976Z,19.63
2019-05-21T21:45:08.963Z,19.43
2019-05-21T21:50:13.089Z,21.43
2019-05-21T21:55:22.697Z,21.27
2019-05-21T22:00:30.563Z,20.73
2019-05-21T22:05:37.324Z,18.40
2019-05-21T22:10:52.750Z,20.90
2019-05-21T22:15:56.977Z,19.70
2019-05-21T22:21:02.401Z,21.73
2019-05-21T22:26:06.909Z,20.10
2019-05-21T22:31:18.211Z,21.93
2019-05-21T22:36:22.136Z,24.80
2019-05-21T22:41:25.852Z,27.10
2019-05-21T22:46:32.696Z,22.67
2019-05-21T22:51:38.106Z,25.00
2019-05-21T22:56:44.878Z,32.80
2019-05-21T23:01:57.137Z,37.73
2019-05-21T23:07:02.452Z,31.53
2019-05-21T23:12:12.443Z,31.63
2019-05-21T23:17:17.822Z,26.37
2019-05-21T23:22:25.054Z,28.17
2019-05-21T23:27:28.681Z,29.60
2019-05-21T23:32:35.677Z,27.30
2019-05-21T23:37:45.105Z,29.33
2019-05-21T23:42:51.840Z,31.33
2019-05-21T23:47:55.473Z,28.93
2019-05-21T23:52:59.414Z,27.60
2019-05-21T23:58:07.180Z,27.33
